Weather at Czyże

Public forecast

Using degrees Celsius for public forecast. Weather courtesy of forecast.io.

Closest aviation weather report (METAR) to Czyże

Closest report is Brest Airport, 44.1 nm (81.8 km) SSE.

2024/04/24 13:10 (retrieved 14 minutes ago)

UMBB 241310Z 34003MPS 2100 -RA BR OVC006 09/08 Q1000 NOSIG RMK QBB180

Closest aviation forecast (TAF) to Czyże

Closest forecast is Lublin Airport, 96.5 nm (178.8 km) SSW.

2024/04/24 12:00 (retrieved 1 hour ago)

TAF EPLB 241130Z 2412/2512 32005KT 9999 SCT011 BKN027 TEMPO 2412/2415 BKN011 BECMG 2415/2418 BKN012 TEMPO 2418/2506 3000 RADZ BR BKN005 BECMG 2503/2506 27010KT BECMG 2506/2509 SCT020